sensor_id;sensor_type;location;lat;lon;timestamp;P1;durP1;ratioP1;P2;durP2;ratioP2
64342;SDS011;50675;53.530;-6.312;2022-08-06T00:02:47;7.47;;;3.45;;
64342;SDS011;50675;53.530;-6.312;2022-08-06T00:05:13;6.55;;;2.85;;
64342;SDS011;50675;53.530;-6.312;2022-08-06T00:07:39;5.75;;;2.80;;
64342;SDS011;50675;53.530;-6.312;2022-08-06T00:10:12;7.40;;;2.78;;
64342;SDS011;50675;53.530;-6.312;2022-08-06T00:12:38;6.72;;;2.78;;
64342;SDS011;50675;53.530;-6.312;2022-08-06T00:15:07;7.57;;;2.90;;
64342;SDS011;50675;53.530;-6.312;2022-08-06T00:17:34;6.30;;;2.65;;
64342;SDS011;50675;53.530;-6.312;2022-08-06T00:20:04;6.70;;;2.65;;
64342;SDS011;50675;53.530;-6.312;2022-08-06T00:22:34;5.20;;;2.65;;
64342;SDS011;50675;53.530;-6.312;2022-08-06T00:25:00;4.35;;;2.22;;
64342;SDS011;50675;53.530;-6.312;2022-08-06T00:27:28;6.30;;;2.70;;
64342;SDS011;50675;53.530;-6.312;2022-08-06T00:29:55;8.15;;;2.60;;
64342;SDS011;50675;53.530;-6.312;2022-08-06T00:32:26;5.40;;;2.65;;
64342;SDS011;50675;53.530;-6.312;2022-08-06T00:34:52;5.28;;;2.75;;
64342;SDS011;50675;53.530;-6.312;2022-08-06T00:37:25;4.78;;;2.40;;
64342;SDS011;50675;53.530;-6.312;2022-08-06T00:39:58;7.07;;;3.20;;
64342;SDS011;50675;53.530;-6.312;2022-08-06T00:42:24;6.00;;;2.80;;
64342;SDS011;50675;53.530;-6.312;2022-08-06T00:44:51;4.07;;;2.38;;
64342;SDS011;50675;53.530;-6.312;2022-08-06T00:47:26;4.50;;;2.42;;
64342;SDS011;50675;53.530;-6.312;2022-08-06T00:49:52;6.40;;;2.67;;
64342;SDS011;50675;53.530;-6.312;2022-08-06T00:52:18;5.22;;;2.50;;
64342;SDS011;50675;53.530;-6.312;2022-08-06T00:54:44;4.95;;;2.47;;
64342;SDS011;50675;53.530;-6.312;2022-08-06T00:57:12;3.80;;;2.38;;
64342;SDS011;50675;53.530;-6.312;2022-08-06T00:59:38;4.97;;;2.50;;
64342;SDS011;50675;53.530;-6.312;2022-08-06T01:02:06;5.13;;;2.20;;
64342;SDS011;50675;53.530;-6.312;2022-08-06T01:04:36;6.50;;;2.60;;
64342;SDS011;50675;53.530;-6.312;2022-08-06T01:07:02;4.93;;;2.50;;
64342;SDS011;50675;53.530;-6.312;2022-08-06T01:09:28;5.45;;;2.83;;
64342;SDS011;50675;53.530;-6.312;2022-08-06T01:11:54;6.57;;;3.35;;
64342;SDS011;50675;53.530;-6.312;2022-08-06T01:14:23;6.43;;;2.30;;
64342;SDS011;50675;53.530;-6.312;2022-08-06T01:16:51;4.47;;;2.30;;
64342;SDS011;50675;53.530;-6.312;2022-08-06T01:22:05;7.50;;;2.72;;
64342;SDS011;50675;53.530;-6.312;2022-08-06T01:30:06;4.32;;;2.42;;
64342;SDS011;50675;53.530;-6.312;2022-08-06T01:32:35;5.68;;;2.70;;
64342;SDS011;50675;53.530;-6.312;2022-08-06T01:35:07;6.80;;;2.80;;
64342;SDS011;50675;53.530;-6.312;2022-08-06T01:37:41;7.35;;;2.85;;
64342;SDS011;50675;53.530;-6.312;2022-08-06T01:40:19;5.30;;;2.90;;
64342;SDS011;50675;53.530;-6.312;2022-08-06T01:42:49;8.02;;;3.03;;
64342;SDS011;50675;53.530;-6.312;2022-08-06T01:45:18;6.05;;;2.75;;
64342;SDS011;50675;53.530;-6.312;2022-08-06T01:47:47;6.55;;;2.67;;
64342;SDS011;50675;53.530;-6.312;2022-08-06T01:50:17;5.68;;;2.80;;
64342;SDS011;50675;53.530;-6.312;2022-08-06T01:52:46;5.70;;;3.00;;
64342;SDS011;50675;53.530;-6.312;2022-08-06T01:55:16;8.48;;;3.83;;
64342;SDS011;50675;53.530;-6.312;2022-08-06T01:57:50;8.38;;;3.10;;
64342;SDS011;50675;53.530;-6.312;2022-08-06T02:00:18;7.40;;;2.95;;
64342;SDS011;50675;53.530;-6.312;2022-08-06T02:02:44;7.95;;;3.45;;
64342;SDS011;50675;53.530;-6.312;2022-08-06T02:05:12;5.22;;;2.85;;
64342;SDS011;50675;53.530;-6.312;2022-08-06T02:07:41;5.55;;;3.42;;
64342;SDS011;50675;53.530;-6.312;2022-08-06T02:10:11;6.97;;;3.17;;
64342;SDS011;50675;53.530;-6.312;2022-08-06T02:12:39;6.80;;;3.38;;
64342;SDS011;50675;53.530;-6.312;2022-08-06T02:17:47;7.65;;;3.38;;
64342;SDS011;50675;53.530;-6.312;2022-08-06T02:20:18;5.80;;;2.95;;
64342;SDS011;50675;53.530;-6.312;2022-08-06T02:22:48;5.50;;;3.00;;
64342;SDS011;50675;53.530;-6.312;2022-08-06T02:25:15;5.78;;;3.13;;
64342;SDS011;50675;53.530;-6.312;2022-08-06T02:27:46;6.20;;;2.88;;
64342;SDS011;50675;53.530;-6.312;2022-08-06T02:30:17;5.43;;;2.85;;
64342;SDS011;50675;53.530;-6.312;2022-08-06T02:32:43;5.20;;;2.80;;
64342;SDS011;50675;53.530;-6.312;2022-08-06T02:35:10;6.75;;;3.72;;
64342;SDS011;50675;53.530;-6.312;2022-08-06T02:37:45;7.97;;;3.00;;
64342;SDS011;50675;53.530;-6.312;2022-08-06T02:40:22;6.82;;;2.75;;
64342;SDS011;50675;53.530;-6.312;2022-08-06T02:45:59;5.38;;;2.70;;
64342;SDS011;50675;53.530;-6.312;2022-08-06T02:48:49;5.47;;;2.90;;
64342;SDS011;50675;53.530;-6.312;2022-08-06T02:51:20;4.32;;;2.53;;
64342;SDS011;50675;53.530;-6.312;2022-08-06T02:54:04;5.47;;;2.72;;
64342;SDS011;50675;53.530;-6.312;2022-08-06T02:56:35;4.75;;;2.88;;
64342;SDS011;50675;53.530;-6.312;2022-08-06T02:59:05;4.60;;;3.08;;
64342;SDS011;50675;53.530;-6.312;2022-08-06T03:01:35;5.72;;;3.03;;
64342;SDS011;50675;53.530;-6.312;2022-08-06T03:04:04;5.50;;;2.83;;
64342;SDS011;50675;53.530;-6.312;2022-08-06T03:06:32;6.32;;;2.88;;
64342;SDS011;50675;53.530;-6.312;2022-08-06T03:09:04;4.95;;;2.30;;
64342;SDS011;50675;53.530;-6.312;2022-08-06T03:11:33;6.75;;;2.85;;
64342;SDS011;50675;53.530;-6.312;2022-08-06T03:14:01;6.00;;;2.55;;
64342;SDS011;50675;53.530;-6.312;2022-08-06T03:16:34;4.68;;;2.67;;
64342;SDS011;50675;53.530;-6.312;2022-08-06T03:19:04;5.50;;;2.53;;
64342;SDS011;50675;53.530;-6.312;2022-08-06T03:21:34;5.22;;;2.90;;
64342;SDS011;50675;53.530;-6.312;2022-08-06T03:24:01;6.10;;;2.50;;
64342;SDS011;50675;53.530;-6.312;2022-08-06T03:26:28;5.80;;;3.15;;
64342;SDS011;50675;53.530;-6.312;2022-08-06T03:28:57;6.70;;;2.70;;
64342;SDS011;50675;53.530;-6.312;2022-08-06T03:31:26;6.45;;;2.50;;
64342;SDS011;50675;53.530;-6.312;2022-08-06T03:33:53;6.00;;;2.30;;
64342;SDS011;50675;53.530;-6.312;2022-08-06T03:36:20;4.75;;;2.67;;
64342;SDS011;50675;53.530;-6.312;2022-08-06T03:38:53;4.55;;;2.80;;
64342;SDS011;50675;53.530;-6.312;2022-08-06T03:41:22;4.07;;;2.50;;
64342;SDS011;50675;53.530;-6.312;2022-08-06T03:43:52;10.38;;;3.42;;
64342;SDS011;50675;53.530;-6.312;2022-08-06T03:46:24;5.47;;;2.63;;
64342;SDS011;50675;53.530;-6.312;2022-08-06T03:49:04;5.68;;;2.55;;
64342;SDS011;50675;53.530;-6.312;2022-08-06T03:51:34;3.58;;;2.05;;
64342;SDS011;50675;53.530;-6.312;2022-08-06T03:54:01;4.60;;;2.20;;
64342;SDS011;50675;53.530;-6.312;2022-08-06T03:56:31;4.28;;;2.33;;
64342;SDS011;50675;53.530;-6.312;2022-08-06T03:59:03;5.60;;;2.58;;
64342;SDS011;50675;53.530;-6.312;2022-08-06T04:01:34;5.30;;;2.67;;
64342;SDS011;50675;53.530;-6.312;2022-08-06T04:04:03;4.68;;;2.40;;
64342;SDS011;50675;53.530;-6.312;2022-08-06T04:06:33;7.30;;;2.60;;
64342;SDS011;50675;53.530;-6.312;2022-08-06T04:08:59;6.15;;;2.63;;
64342;SDS011;50675;53.530;-6.312;2022-08-06T04:11:26;5.47;;;2.47;;
64342;SDS011;50675;53.530;-6.312;2022-08-06T04:13:53;4.95;;;2.72;;
64342;SDS011;50675;53.530;-6.312;2022-08-06T04:16:19;5.72;;;2.78;;
64342;SDS011;50675;53.530;-6.312;2022-08-06T04:18:45;5.60;;;2.80;;
64342;SDS011;50675;53.530;-6.312;2022-08-06T04:21:19;7.50;;;2.80;;
64342;SDS011;50675;53.530;-6.312;2022-08-06T04:23:54;5.53;;;3.00;;
64342;SDS011;50675;53.530;-6.312;2022-08-06T04:26:21;3.83;;;2.42;;
64342;SDS011;50675;53.530;-6.312;2022-08-06T04:28:52;5.60;;;2.70;;
64342;SDS011;50675;53.530;-6.312;2022-08-06T04:31:23;7.28;;;3.50;;
64342;SDS011;50675;53.530;-6.312;2022-08-06T04:33:55;4.65;;;2.30;;
64342;SDS011;50675;53.530;-6.312;2022-08-06T04:36:23;6.57;;;3.17;;
64342;SDS011;50675;53.530;-6.312;2022-08-06T04:38:50;7.72;;;2.80;;
64342;SDS011;50675;53.530;-6.312;2022-08-06T04:41:19;4.72;;;2.33;;
64342;SDS011;50675;53.530;-6.312;2022-08-06T04:43:46;6.25;;;2.35;;
64342;SDS011;50675;53.530;-6.312;2022-08-06T04:46:15;5.40;;;2.38;;
64342;SDS011;50675;53.530;-6.312;2022-08-06T04:48:42;7.88;;;2.50;;
64342;SDS011;50675;53.530;-6.312;2022-08-06T04:51:08;9.30;;;2.70;;
64342;SDS011;50675;53.530;-6.312;2022-08-06T04:53:38;4.93;;;2.30;;
64342;SDS011;50675;53.530;-6.312;2022-08-06T04:56:06;5.80;;;2.42;;
64342;SDS011;50675;53.530;-6.312;2022-08-06T04:58:34;5.43;;;2.45;;
64342;SDS011;50675;53.530;-6.312;2022-08-06T05:01:00;6.70;;;2.42;;
64342;SDS011;50675;53.530;-6.312;2022-08-06T05:03:27;5.55;;;2.20;;
64342;SDS011;50675;53.530;-6.312;2022-08-06T05:08:29;5.97;;;2.85;;
64342;SDS011;50675;53.530;-6.312;2022-08-06T05:11:00;8.05;;;3.05;;
64342;SDS011;50675;53.530;-6.312;2022-08-06T05:13:36;6.55;;;2.58;;
64342;SDS011;50675;53.530;-6.312;2022-08-06T05:16:09;4.45;;;2.40;;
64342;SDS011;50675;53.530;-6.312;2022-08-06T05:18:43;5.90;;;2.33;;
64342;SDS011;50675;53.530;-6.312;2022-08-06T05:21:12;5.15;;;2.58;;
64342;SDS011;50675;53.530;-6.312;2022-08-06T05:23:45;6.68;;;2.60;;
64342;SDS011;50675;53.530;-6.312;2022-08-06T05:26:13;5.43;;;2.30;;
64342;SDS011;50675;53.530;-6.312;2022-08-06T05:28:40;6.10;;;2.67;;
64342;SDS011;50675;53.530;-6.312;2022-08-06T05:31:06;4.78;;;2.50;;
64342;SDS011;50675;53.530;-6.312;2022-08-06T05:33:33;6.35;;;2.65;;
64342;SDS011;50675;53.530;-6.312;2022-08-06T05:36:03;7.13;;;2.53;;
64342;SDS011;50675;53.530;-6.312;2022-08-06T05:38:30;5.63;;;2.45;;
64342;SDS011;50675;53.530;-6.312;2022-08-06T05:40:58;5.80;;;2.60;;
64342;SDS011;50675;53.530;-6.312;2022-08-06T05:43:24;5.72;;;2.58;;
64342;SDS011;50675;53.530;-6.312;2022-08-06T05:45:52;6.13;;;2.45;;
64342;SDS011;50675;53.530;-6.312;2022-08-06T05:48:21;4.13;;;2.30;;
64342;SDS011;50675;53.530;-6.312;2022-08-06T05:50:59;5.15;;;2.55;;
64342;SDS011;50675;53.530;-6.312;2022-08-06T05:53:30;8.77;;;2.65;;
64342;SDS011;50675;53.530;-6.312;2022-08-06T05:56:02;6.13;;;2.63;;
64342;SDS011;50675;53.530;-6.312;2022-08-06T05:58:47;5.68;;;2.38;;
64342;SDS011;50675;53.530;-6.312;2022-08-06T06:01:16;8.05;;;2.78;;
64342;SDS011;50675;53.530;-6.312;2022-08-06T06:03:46;5.45;;;2.78;;
64342;SDS011;50675;53.530;-6.312;2022-08-06T06:06:13;6.25;;;3.00;;
64342;SDS011;50675;53.530;-6.312;2022-08-06T06:08:40;6.18;;;2.95;;
64342;SDS011;50675;53.530;-6.312;2022-08-06T06:11:09;5.55;;;3.20;;
64342;SDS011;50675;53.530;-6.312;2022-08-06T06:13:36;6.68;;;3.40;;
64342;SDS011;50675;53.530;-6.312;2022-08-06T06:24:15;7.95;;;3.63;;
64342;SDS011;50675;53.530;-6.312;2022-08-06T06:38:36;6.18;;;3.17;;
64342;SDS011;50675;53.530;-6.312;2022-08-06T06:43:53;8.07;;;3.03;;
64342;SDS011;50675;53.530;-6.312;2022-08-06T06:46:34;4.95;;;2.45;;
64342;SDS011;50675;53.530;-6.312;2022-08-06T06:49:10;5.28;;;2.70;;
64342;SDS011;50675;53.530;-6.312;2022-08-06T06:51:45;5.65;;;2.55;;
64342;SDS011;50675;53.530;-6.312;2022-08-06T06:54:26;5.45;;;2.60;;
64342;SDS011;50675;53.530;-6.312;2022-08-06T06:56:57;6.53;;;2.35;;
64342;SDS011;50675;53.530;-6.312;2022-08-06T06:59:29;6.90;;;2.30;;
64342;SDS011;50675;53.530;-6.312;2022-08-06T07:01:58;4.88;;;2.38;;
64342;SDS011;50675;53.530;-6.312;2022-08-06T07:04:26;5.93;;;2.30;;
64342;SDS011;50675;53.530;-6.312;2022-08-06T07:06:57;6.10;;;2.20;;
64342;SDS011;50675;53.530;-6.312;2022-08-06T07:09:31;6.53;;;2.20;;
64342;SDS011;50675;53.530;-6.312;2022-08-06T07:12:03;7.65;;;2.97;;
64342;SDS011;50675;53.530;-6.312;2022-08-06T07:14:34;6.60;;;2.55;;
64342;SDS011;50675;53.530;-6.312;2022-08-06T07:17:07;5.05;;;2.25;;
64342;SDS011;50675;53.530;-6.312;2022-08-06T07:19:38;4.07;;;2.35;;
64342;SDS011;50675;53.530;-6.312;2022-08-06T07:22:12;5.70;;;2.08;;
64342;SDS011;50675;53.530;-6.312;2022-08-06T07:24:44;5.82;;;2.10;;
64342;SDS011;50675;53.530;-6.312;2022-08-06T07:27:14;4.40;;;2.08;;
64342;SDS011;50675;53.530;-6.312;2022-08-06T07:30:12;3.30;;;1.63;;
64342;SDS011;50675;53.530;-6.312;2022-08-06T07:32:48;5.73;;;1.87;;
64342;SDS011;50675;53.530;-6.312;2022-08-06T07:35:18;4.93;;;1.90;;
64342;SDS011;50675;53.530;-6.312;2022-08-06T07:37:53;5.00;;;1.55;;
64342;SDS011;50675;53.530;-6.312;2022-08-06T07:40:35;4.57;;;1.73;;
64342;SDS011;50675;53.530;-6.312;2022-08-06T07:43:07;3.33;;;1.92;;
64342;SDS011;50675;53.530;-6.312;2022-08-06T07:45:38;3.35;;;1.55;;
64342;SDS011;50675;53.530;-6.312;2022-08-06T07:48:09;3.05;;;1.67;;
64342;SDS011;50675;53.530;-6.312;2022-08-06T07:50:39;3.13;;;1.67;;
64342;SDS011;50675;53.530;-6.312;2022-08-06T07:53:14;4.35;;;1.50;;
64342;SDS011;50675;53.530;-6.312;2022-08-06T07:55:46;6.63;;;1.65;;
64342;SDS011;50675;53.530;-6.312;2022-08-06T07:58:12;3.00;;;1.50;;
64342;SDS011;50675;53.530;-6.312;2022-08-06T08:00:40;5.65;;;1.70;;
64342;SDS011;50675;53.530;-6.312;2022-08-06T08:03:15;3.72;;;1.58;;
64342;SDS011;50675;53.530;-6.312;2022-08-06T08:06:06;4.97;;;2.00;;
64342;SDS011;50675;53.530;-6.312;2022-08-06T08:08:50;4.90;;;1.73;;
64342;SDS011;50675;53.530;-6.312;2022-08-06T08:11:36;5.25;;;1.60;;
64342;SDS011;50675;53.530;-6.312;2022-08-06T08:14:15;3.97;;;1.90;;
64342;SDS011;50675;53.530;-6.312;2022-08-06T08:16:46;5.15;;;1.73;;
64342;SDS011;50675;53.530;-6.312;2022-08-06T08:21:59;4.90;;;2.10;;
64342;SDS011;50675;53.530;-6.312;2022-08-06T09:13:59;4.32;;;1.48;;
64342;SDS011;50675;53.530;-6.312;2022-08-06T09:16:29;1.87;;;1.17;;
64342;SDS011;50675;53.530;-6.312;2022-08-06T09:18:56;2.05;;;1.00;;
64342;SDS011;50675;53.530;-6.312;2022-08-06T09:21:22;4.85;;;1.10;;
64342;SDS011;50675;53.530;-6.312;2022-08-06T09:23:48;1.88;;;0.95;;
64342;SDS011;50675;53.530;-6.312;2022-08-06T09:26:14;5.60;;;1.50;;
64342;SDS011;50675;53.530;-6.312;2022-08-06T09:28:41;5.18;;;1.15;;
64342;SDS011;50675;53.530;-6.312;2022-08-06T09:31:12;2.20;;;1.30;;
64342;SDS011;50675;53.530;-6.312;2022-08-06T09:33:41;2.40;;;1.00;;
64342;SDS011;50675;53.530;-6.312;2022-08-06T09:36:17;3.75;;;1.40;;
64342;SDS011;50675;53.530;-6.312;2022-08-06T09:38:47;2.42;;;1.02;;
64342;SDS011;50675;53.530;-6.312;2022-08-06T09:41:19;3.40;;;1.25;;
64342;SDS011;50675;53.530;-6.312;2022-08-06T09:43:48;1.92;;;1.10;;
64342;SDS011;50675;53.530;-6.312;2022-08-06T09:46:16;4.80;;;1.20;;
64342;SDS011;50675;53.530;-6.312;2022-08-06T09:48:55;3.38;;;1.50;;
64342;SDS011;50675;53.530;-6.312;2022-08-06T09:51:26;1.60;;;0.82;;
64342;SDS011;50675;53.530;-6.312;2022-08-06T09:53:56;2.85;;;1.40;;
64342;SDS011;50675;53.530;-6.312;2022-08-06T09:56:24;1.83;;;1.05;;
64342;SDS011;50675;53.530;-6.312;2022-08-06T09:58:56;2.38;;;1.23;;
64342;SDS011;50675;53.530;-6.312;2022-08-06T10:01:24;5.50;;;1.65;;
64342;SDS011;50675;53.530;-6.312;2022-08-06T10:03:51;2.45;;;1.38;;
64342;SDS011;50675;53.530;-6.312;2022-08-06T10:06:19;5.03;;;1.30;;
64342;SDS011;50675;53.530;-6.312;2022-08-06T10:08:49;3.30;;;1.45;;
64342;SDS011;50675;53.530;-6.312;2022-08-06T10:11:36;2.15;;;0.90;;
64342;SDS011;50675;53.530;-6.312;2022-08-06T10:14:04;1.77;;;0.98;;
64342;SDS011;50675;53.530;-6.312;2022-08-06T10:16:29;3.05;;;1.20;;
64342;SDS011;50675;53.530;-6.312;2022-08-06T10:18:58;2.13;;;0.90;;
64342;SDS011;50675;53.530;-6.312;2022-08-06T10:21:32;3.30;;;1.20;;
64342;SDS011;50675;53.530;-6.312;2022-08-06T10:24:02;3.50;;;1.08;;
64342;SDS011;50675;53.530;-6.312;2022-08-06T10:26:29;5.70;;;1.52;;
64342;SDS011;50675;53.530;-6.312;2022-08-06T10:29:00;2.22;;;0.93;;
64342;SDS011;50675;53.530;-6.312;2022-08-06T10:31:28;3.03;;;1.48;;
64342;SDS011;50675;53.530;-6.312;2022-08-06T10:36:34;2.00;;;1.23;;
64342;SDS011;50675;53.530;-6.312;2022-08-06T10:39:02;4.20;;;1.38;;
64342;SDS011;50675;53.530;-6.312;2022-08-06T10:41:30;3.45;;;1.50;;
64342;SDS011;50675;53.530;-6.312;2022-08-06T10:43:56;1.92;;;1.00;;
64342;SDS011;50675;53.530;-6.312;2022-08-06T10:46:22;3.25;;;1.20;;
64342;SDS011;50675;53.530;-6.312;2022-08-06T10:48:49;3.05;;;1.23;;
64342;SDS011;50675;53.530;-6.312;2022-08-06T10:51:15;4.30;;;1.42;;
64342;SDS011;50675;53.530;-6.312;2022-08-06T10:53:45;2.92;;;1.00;;
64342;SDS011;50675;53.530;-6.312;2022-08-06T10:56:12;1.15;;;1.00;;
64342;SDS011;50675;53.530;-6.312;2022-08-06T10:58:40;2.28;;;1.02;;
64342;SDS011;50675;53.530;-6.312;2022-08-06T11:01:08;3.95;;;1.13;;
64342;SDS011;50675;53.530;-6.312;2022-08-06T11:03:41;1.52;;;0.90;;
64342;SDS011;50675;53.530;-6.312;2022-08-06T11:11:52;3.05;;;0.93;;
64342;SDS011;50675;53.530;-6.312;2022-08-06T11:14:22;0.80;;;0.77;;
64342;SDS011;50675;53.530;-6.312;2022-08-06T11:16:58;2.17;;;1.38;;
64342;SDS011;50675;53.530;-6.312;2022-08-06T11:19:57;2.40;;;1.10;;
64342;SDS011;50675;53.530;-6.312;2022-08-06T11:25:05;5.53;;;1.63;;
64342;SDS011;50675;53.530;-6.312;2022-08-06T11:30:23;4.25;;;1.40;;
64342;SDS011;50675;53.530;-6.312;2022-08-06T11:33:10;2.10;;;1.30;;
64342;SDS011;50675;53.530;-6.312;2022-08-06T11:38:06;2.88;;;1.27;;
64342;SDS011;50675;53.530;-6.312;2022-08-06T11:51:45;1.65;;;0.77;;
64342;SDS011;50675;53.530;-6.312;2022-08-06T11:54:17;5.93;;;1.42;;
64342;SDS011;50675;53.530;-6.312;2022-08-06T11:59:35;1.75;;;0.98;;
64342;SDS011;50675;53.530;-6.312;2022-08-06T12:02:03;3.40;;;1.00;;
64342;SDS011;50675;53.530;-6.312;2022-08-06T12:07:14;3.10;;;1.50;;
64342;SDS011;50675;53.530;-6.312;2022-08-06T12:09:40;1.58;;;1.13;;
64342;SDS011;50675;53.530;-6.312;2022-08-06T12:25:28;2.10;;;1.15;;
64342;SDS011;50675;53.530;-6.312;2022-08-06T12:30:22;4.30;;;1.15;;
64342;SDS011;50675;53.530;-6.312;2022-08-06T12:32:48;2.15;;;1.33;;
64342;SDS011;50675;53.530;-6.312;2022-08-06T12:35:14;3.05;;;1.35;;
64342;SDS011;50675;53.530;-6.312;2022-08-06T12:40:09;2.78;;;1.25;;
64342;SDS011;50675;53.530;-6.312;2022-08-06T12:42:54;3.30;;;1.30;;
64342;SDS011;50675;53.530;-6.312;2022-08-06T12:45:34;3.20;;;1.48;;
64342;SDS011;50675;53.530;-6.312;2022-08-06T12:48:01;2.67;;;1.20;;
64342;SDS011;50675;53.530;-6.312;2022-08-06T12:50:27;2.47;;;1.30;;
64342;SDS011;50675;53.530;-6.312;2022-08-06T12:55:29;2.58;;;1.30;;
64342;SDS011;50675;53.530;-6.312;2022-08-06T12:57:56;2.58;;;1.38;;
64342;SDS011;50675;53.530;-6.312;2022-08-06T13:00:23;2.92;;;1.13;;
64342;SDS011;50675;53.530;-6.312;2022-08-06T13:02:49;3.58;;;1.60;;
64342;SDS011;50675;53.530;-6.312;2022-08-06T13:05:15;3.65;;;2.38;;
64342;SDS011;50675;53.530;-6.312;2022-08-06T13:07:41;3.13;;;1.40;;
64342;SDS011;50675;53.530;-6.312;2022-08-06T13:10:08;2.95;;;1.50;;
64342;SDS011;50675;53.530;-6.312;2022-08-06T13:12:35;2.58;;;1.17;;
64342;SDS011;50675;53.530;-6.312;2022-08-06T13:15:09;2.13;;;1.40;;
64342;SDS011;50675;53.530;-6.312;2022-08-06T13:17:39;3.00;;;1.58;;
64342;SDS011;50675;53.530;-6.312;2022-08-06T13:20:05;2.47;;;1.40;;
64342;SDS011;50675;53.530;-6.312;2022-08-06T13:22:47;2.67;;;1.73;;
64342;SDS011;50675;53.530;-6.312;2022-08-06T13:25:15;4.22;;;1.67;;
64342;SDS011;50675;53.530;-6.312;2022-08-06T13:27:42;2.63;;;1.45;;
64342;SDS011;50675;53.530;-6.312;2022-08-06T13:30:08;2.38;;;1.48;;
64342;SDS011;50675;53.530;-6.312;2022-08-06T13:32:35;4.20;;;1.73;;
64342;SDS011;50675;53.530;-6.312;2022-08-06T13:35:03;2.80;;;1.50;;
64342;SDS011;50675;53.530;-6.312;2022-08-06T13:40:18;4.55;;;1.77;;
64342;SDS011;50675;53.530;-6.312;2022-08-06T13:42:59;4.65;;;1.73;;
64342;SDS011;50675;53.530;-6.312;2022-08-06T13:45:26;3.10;;;1.80;;
64342;SDS011;50675;53.530;-6.312;2022-08-06T13:48:06;3.42;;;1.50;;
64342;SDS011;50675;53.530;-6.312;2022-08-06T13:50:38;3.05;;;1.70;;
64342;SDS011;50675;53.530;-6.312;2022-08-06T13:53:05;4.25;;;1.98;;
64342;SDS011;50675;53.530;-6.312;2022-08-06T13:55:31;3.95;;;2.55;;
64342;SDS011;50675;53.530;-6.312;2022-08-06T13:57:57;2.78;;;1.75;;
64342;SDS011;50675;53.530;-6.312;2022-08-06T14:00:23;3.00;;;1.67;;
64342;SDS011;50675;53.530;-6.312;2022-08-06T14:02:51;3.30;;;1.95;;
64342;SDS011;50675;53.530;-6.312;2022-08-06T14:05:17;4.38;;;1.70;;
64342;SDS011;50675;53.530;-6.312;2022-08-06T14:07:43;3.47;;;1.98;;
64342;SDS011;50675;53.530;-6.312;2022-08-06T14:10:09;3.35;;;2.00;;
64342;SDS011;50675;53.530;-6.312;2022-08-06T14:12:36;5.25;;;2.13;;
64342;SDS011;50675;53.530;-6.312;2022-08-06T14:15:02;2.97;;;1.70;;
64342;SDS011;50675;53.530;-6.312;2022-08-06T14:17:28;4.43;;;1.90;;
64342;SDS011;50675;53.530;-6.312;2022-08-06T14:19:54;3.58;;;1.90;;
64342;SDS011;50675;53.530;-6.312;2022-08-06T14:22:19;5.05;;;2.45;;
64342;SDS011;50675;53.530;-6.312;2022-08-06T14:24:45;3.65;;;1.92;;
64342;SDS011;50675;53.530;-6.312;2022-08-06T14:27:11;5.18;;;1.92;;
64342;SDS011;50675;53.530;-6.312;2022-08-06T14:29:37;4.85;;;2.40;;
64342;SDS011;50675;53.530;-6.312;2022-08-06T14:32:04;5.03;;;2.30;;
64342;SDS011;50675;53.530;-6.312;2022-08-06T14:34:31;4.03;;;2.05;;
64342;SDS011;50675;53.530;-6.312;2022-08-06T14:36:57;5.15;;;2.42;;
64342;SDS011;50675;53.530;-6.312;2022-08-06T14:39:23;3.40;;;2.28;;
64342;SDS011;50675;53.530;-6.312;2022-08-06T14:41:49;3.35;;;1.98;;
64342;SDS011;50675;53.530;-6.312;2022-08-06T14:44:34;6.80;;;2.65;;
64342;SDS011;50675;53.530;-6.312;2022-08-06T14:47:18;5.13;;;2.28;;
64342;SDS011;50675;53.530;-6.312;2022-08-06T14:49:44;4.63;;;2.35;;
64342;SDS011;50675;53.530;-6.312;2022-08-06T14:52:09;3.85;;;2.28;;
64342;SDS011;50675;53.530;-6.312;2022-08-06T14:54:36;6.43;;;2.28;;
64342;SDS011;50675;53.530;-6.312;2022-08-06T14:57:07;3.85;;;2.20;;
64342;SDS011;50675;53.530;-6.312;2022-08-06T14:59:35;6.20;;;2.40;;
64342;SDS011;50675;53.530;-6.312;2022-08-06T15:02:05;6.00;;;2.60;;
64342;SDS011;50675;53.530;-6.312;2022-08-06T15:04:34;5.72;;;2.88;;
64342;SDS011;50675;53.530;-6.312;2022-08-06T15:09:59;4.18;;;2.28;;
64342;SDS011;50675;53.530;-6.312;2022-08-06T15:12:31;5.10;;;2.53;;
64342;SDS011;50675;53.530;-6.312;2022-08-06T15:14:57;4.68;;;2.17;;
64342;SDS011;50675;53.530;-6.312;2022-08-06T15:17:23;5.40;;;2.30;;
64342;SDS011;50675;53.530;-6.312;2022-08-06T15:19:48;5.40;;;2.30;;
64342;SDS011;50675;53.530;-6.312;2022-08-06T15:22:14;4.68;;;2.38;;
64342;SDS011;50675;53.530;-6.312;2022-08-06T15:24:40;4.60;;;2.53;;
64342;SDS011;50675;53.530;-6.312;2022-08-06T15:27:06;5.60;;;2.65;;
64342;SDS011;50675;53.530;-6.312;2022-08-06T15:29:32;4.90;;;2.20;;
64342;SDS011;50675;53.530;-6.312;2022-08-06T15:31:58;5.10;;;2.30;;
64342;SDS011;50675;53.530;-6.312;2022-08-06T15:34:24;4.40;;;2.30;;
64342;SDS011;50675;53.530;-6.312;2022-08-06T15:36:49;5.35;;;2.00;;
64342;SDS011;50675;53.530;-6.312;2022-08-06T15:39:15;4.65;;;2.20;;
64342;SDS011;50675;53.530;-6.312;2022-08-06T15:41:41;4.53;;;2.00;;
64342;SDS011;50675;53.530;-6.312;2022-08-06T15:44:07;4.15;;;2.00;;
64342;SDS011;50675;53.530;-6.312;2022-08-06T15:46:34;3.08;;;1.75;;
64342;SDS011;50675;53.530;-6.312;2022-08-06T15:49:00;4.80;;;2.13;;
64342;SDS011;50675;53.530;-6.312;2022-08-06T15:51:26;3.28;;;1.85;;
64342;SDS011;50675;53.530;-6.312;2022-08-06T15:53:52;3.95;;;2.05;;
64342;SDS011;50675;53.530;-6.312;2022-08-06T15:56:18;4.32;;;2.60;;
64342;SDS011;50675;53.530;-6.312;2022-08-06T15:58:44;2.33;;;1.50;;
64342;SDS011;50675;53.530;-6.312;2022-08-06T16:01:10;3.90;;;2.00;;
64342;SDS011;50675;53.530;-6.312;2022-08-06T16:03:37;4.68;;;2.05;;
64342;SDS011;50675;53.530;-6.312;2022-08-06T16:06:03;4.18;;;1.80;;
64342;SDS011;50675;53.530;-6.312;2022-08-06T16:08:30;3.28;;;1.80;;
64342;SDS011;50675;53.530;-6.312;2022-08-06T16:10:57;5.00;;;2.47;;
64342;SDS011;50675;53.530;-6.312;2022-08-06T16:13:23;4.50;;;1.70;;
64342;SDS011;50675;53.530;-6.312;2022-08-06T16:15:50;3.97;;;1.90;;
64342;SDS011;50675;53.530;-6.312;2022-08-06T16:18:18;3.45;;;2.30;;
64342;SDS011;50675;53.530;-6.312;2022-08-06T16:20:46;4.35;;;2.30;;
64342;SDS011;50675;53.530;-6.312;2022-08-06T16:23:13;4.65;;;2.00;;
64342;SDS011;50675;53.530;-6.312;2022-08-06T16:25:39;4.35;;;2.15;;
64342;SDS011;50675;53.530;-6.312;2022-08-06T16:28:06;5.07;;;2.22;;
64342;SDS011;50675;53.530;-6.312;2022-08-06T16:30:33;6.05;;;2.33;;
64342;SDS011;50675;53.530;-6.312;2022-08-06T16:33:00;4.45;;;2.17;;
64342;SDS011;50675;53.530;-6.312;2022-08-06T16:35:26;2.53;;;1.90;;
64342;SDS011;50675;53.530;-6.312;2022-08-06T16:37:52;3.13;;;1.83;;
64342;SDS011;50675;53.530;-6.312;2022-08-06T16:40:18;4.80;;;1.92;;
64342;SDS011;50675;53.530;-6.312;2022-08-06T16:42:46;3.28;;;2.00;;
64342;SDS011;50675;53.530;-6.312;2022-08-06T16:45:12;6.65;;;2.20;;
64342;SDS011;50675;53.530;-6.312;2022-08-06T16:47:39;3.85;;;1.92;;
64342;SDS011;50675;53.530;-6.312;2022-08-06T16:50:06;3.75;;;1.88;;
64342;SDS011;50675;53.530;-6.312;2022-08-06T16:52:32;3.17;;;2.13;;
64342;SDS011;50675;53.530;-6.312;2022-08-06T16:54:57;3.38;;;1.70;;
64342;SDS011;50675;53.530;-6.312;2022-08-06T16:57:23;4.60;;;2.10;;
64342;SDS011;50675;53.530;-6.312;2022-08-06T16:59:49;4.03;;;2.30;;
64342;SDS011;50675;53.530;-6.312;2022-08-06T17:02:14;4.72;;;2.03;;
64342;SDS011;50675;53.530;-6.312;2022-08-06T17:04:59;3.83;;;1.77;;
64342;SDS011;50675;53.530;-6.312;2022-08-06T17:07:24;5.07;;;2.35;;
64342;SDS011;50675;53.530;-6.312;2022-08-06T17:09:50;3.50;;;2.10;;
64342;SDS011;50675;53.530;-6.312;2022-08-06T17:12:24;5.85;;;2.22;;
64342;SDS011;50675;53.530;-6.312;2022-08-06T17:15:01;4.72;;;2.20;;
64342;SDS011;50675;53.530;-6.312;2022-08-06T17:18:32;4.63;;;2.42;;
64342;SDS011;50675;53.530;-6.312;2022-08-06T17:25:16;5.10;;;2.40;;